sensor_id;sensor_type;location;lat;lon;timestamp;P1;durP1;ratioP1;P2;durP2;ratioP2
21183;SDS011;18176;49.502;11.754;2023-10-31T00:02:37;4.10;;;3.63;;
21183;SDS011;18176;49.502;11.754;2023-10-31T00:06:37;5.17;;;3.93;;
21183;SDS011;18176;49.502;11.754;2023-10-31T00:10:37;4.73;;;3.63;;
21183;SDS011;18176;49.502;11.754;2023-10-31T00:14:44;4.93;;;4.17;;
21183;SDS011;18176;49.502;11.754;2023-10-31T00:18:44;5.60;;;4.07;;
21183;SDS011;18176;49.502;11.754;2023-10-31T00:22:45;5.23;;;3.93;;
21183;SDS011;18176;49.502;11.754;2023-10-31T00:26:45;6.03;;;3.93;;
21183;SDS011;18176;49.502;11.754;2023-10-31T00:30:48;5.07;;;3.83;;
21183;SDS011;18176;49.502;11.754;2023-10-31T00:34:49;4.97;;;4.47;;
21183;SDS011;18176;49.502;11.754;2023-10-31T00:38:49;5.67;;;4.10;;
21183;SDS011;18176;49.502;11.754;2023-10-31T00:42:49;6.77;;;4.10;;
21183;SDS011;18176;49.502;11.754;2023-10-31T00:46:53;5.20;;;4.30;;
21183;SDS011;18176;49.502;11.754;2023-10-31T00:50:53;4.60;;;3.87;;
21183;SDS011;18176;49.502;11.754;2023-10-31T00:54:54;5.07;;;3.97;;
21183;SDS011;18176;49.502;11.754;2023-10-31T00:58:54;5.13;;;3.80;;
21183;SDS011;18176;49.502;11.754;2023-10-31T01:02:57;3.20;;;2.90;;
21183;SDS011;18176;49.502;11.754;2023-10-31T01:06:58;3.23;;;2.63;;
21183;SDS011;18176;49.502;11.754;2023-10-31T01:10:58;3.13;;;2.70;;
21183;SDS011;18176;49.502;11.754;2023-10-31T01:14:59;2.03;;;1.90;;
21183;SDS011;18176;49.502;11.754;2023-10-31T01:19:03;1.47;;;1.37;;
21183;SDS011;18176;49.502;11.754;2023-10-31T01:23:04;1.23;;;1.13;;
21183;SDS011;18176;49.502;11.754;2023-10-31T01:27:04;1.20;;;1.10;;
21183;SDS011;18176;49.502;11.754;2023-10-31T01:31:05;2.03;;;1.37;;
21183;SDS011;18176;49.502;11.754;2023-10-31T01:35:09;1.70;;;1.60;;
21183;SDS011;18176;49.502;11.754;2023-10-31T01:39:09;2.63;;;1.53;;
21183;SDS011;18176;49.502;11.754;2023-10-31T01:43:10;2.70;;;2.00;;
21183;SDS011;18176;49.502;11.754;2023-10-31T01:47:12;2.10;;;1.90;;
21183;SDS011;18176;49.502;11.754;2023-10-31T01:51:15;2.20;;;2.00;;
21183;SDS011;18176;49.502;11.754;2023-10-31T01:55:15;2.40;;;2.20;;
21183;SDS011;18176;49.502;11.754;2023-10-31T01:59:16;2.40;;;2.20;;
21183;SDS011;18176;49.502;11.754;2023-10-31T02:03:16;3.37;;;2.43;;
21183;SDS011;18176;49.502;11.754;2023-10-31T02:07:20;3.53;;;2.37;;
21183;SDS011;18176;49.502;11.754;2023-10-31T02:11:20;2.30;;;2.10;;
21183;SDS011;18176;49.502;11.754;2023-10-31T02:15:21;2.33;;;2.13;;
21183;SDS011;18176;49.502;11.754;2023-10-31T02:19:21;2.87;;;2.07;;
21183;SDS011;18176;49.502;11.754;2023-10-31T02:23:24;2.80;;;2.13;;
21183;SDS011;18176;49.502;11.754;2023-10-31T02:27:25;2.40;;;1.80;;
21183;SDS011;18176;49.502;11.754;2023-10-31T02:31:25;1.73;;;1.63;;
21183;SDS011;18176;49.502;11.754;2023-10-31T02:35:26;1.57;;;1.37;;
21183;SDS011;18176;49.502;11.754;2023-10-31T02:39:29;2.00;;;1.43;;
21183;SDS011;18176;49.502;11.754;2023-10-31T02:43:29;0.93;;;0.93;;
21183;SDS011;18176;49.502;11.754;2023-10-31T02:47:30;1.17;;;1.10;;
21183;SDS011;18176;49.502;11.754;2023-10-31T02:51:31;1.33;;;1.10;;
21183;SDS011;18176;49.502;11.754;2023-10-31T02:55:34;0.90;;;0.90;;
21183;SDS011;18176;49.502;11.754;2023-10-31T02:59:34;1.10;;;1.00;;
21183;SDS011;18176;49.502;11.754;2023-10-31T03:03:35;1.20;;;1.10;;
21183;SDS011;18176;49.502;11.754;2023-10-31T03:07:36;1.07;;;0.80;;
21183;SDS011;18176;49.502;11.754;2023-10-31T03:11:39;1.43;;;0.97;;
21183;SDS011;18176;49.502;11.754;2023-10-31T03:15:39;0.70;;;0.70;;
21183;SDS011;18176;49.502;11.754;2023-10-31T03:19:40;0.97;;;0.87;;
21183;SDS011;18176;49.502;11.754;2023-10-31T03:23:40;1.63;;;0.83;;
21183;SDS011;18176;49.502;11.754;2023-10-31T03:27:44;0.83;;;0.83;;
21183;SDS011;18176;49.502;11.754;2023-10-31T03:31:44;2.50;;;1.07;;
21183;SDS011;18176;49.502;11.754;2023-10-31T03:35:45;3.00;;;1.00;;
21183;SDS011;18176;49.502;11.754;2023-10-31T03:39:45;1.20;;;1.10;;
21183;SDS011;18176;49.502;11.754;2023-10-31T03:43:48;1.53;;;1.00;;
21183;SDS011;18176;49.502;11.754;2023-10-31T03:47:49;0.97;;;0.87;;
21183;SDS011;18176;49.502;11.754;2023-10-31T03:51:49;0.80;;;0.80;;
21183;SDS011;18176;49.502;11.754;2023-10-31T03:55:50;1.50;;;0.80;;
21183;SDS011;18176;49.502;11.754;2023-10-31T03:59:53;0.87;;;0.80;;
21183;SDS011;18176;49.502;11.754;2023-10-31T04:03:54;1.10;;;0.80;;
21183;SDS011;18176;49.502;11.754;2023-10-31T04:07:54;0.77;;;0.77;;
21183;SDS011;18176;49.502;11.754;2023-10-31T04:11:56;1.27;;;0.77;;
21183;SDS011;18176;49.502;11.754;2023-10-31T04:15:59;2.73;;;0.83;;
21183;SDS011;18176;49.502;11.754;2023-10-31T04:19:59;0.80;;;0.80;;
21183;SDS011;18176;49.502;11.754;2023-10-31T04:24:01;1.73;;;0.97;;
21183;SDS011;18176;49.502;11.754;2023-10-31T04:28:02;0.77;;;0.70;;
21183;SDS011;18176;49.502;11.754;2023-10-31T04:32:05;1.53;;;0.80;;
21183;SDS011;18176;49.502;11.754;2023-10-31T04:36:07;1.00;;;0.80;;
21183;SDS011;18176;49.502;11.754;2023-10-31T04:40:09;1.30;;;0.93;;
21183;SDS011;18176;49.502;11.754;2023-10-31T04:44:11;2.37;;;0.83;;
21183;SDS011;18176;49.502;11.754;2023-10-31T04:48:14;1.07;;;0.90;;
21183;SDS011;18176;49.502;11.754;2023-10-31T04:52:15;2.20;;;0.90;;
21183;SDS011;18176;49.502;11.754;2023-10-31T04:56:19;1.63;;;0.90;;
21183;SDS011;18176;49.502;11.754;2023-10-31T05:00:19;0.90;;;0.90;;
21183;SDS011;18176;49.502;11.754;2023-10-31T05:04:23;1.90;;;1.10;;
21183;SDS011;18176;49.502;11.754;2023-10-31T05:08:23;2.43;;;1.30;;
21183;SDS011;18176;49.502;11.754;2023-10-31T05:12:24;1.10;;;1.00;;
21183;SDS011;18176;49.502;11.754;2023-10-31T05:16:24;3.47;;;1.27;;
21183;SDS011;18176;49.502;11.754;2023-10-31T05:20:27;2.23;;;1.10;;
21183;SDS011;18176;49.502;11.754;2023-10-31T05:24:27;1.03;;;1.00;;
21183;SDS011;18176;49.502;11.754;2023-10-31T05:28:28;2.13;;;1.10;;
21183;SDS011;18176;49.502;11.754;2023-10-31T05:32:29;2.13;;;1.20;;
21183;SDS011;18176;49.502;11.754;2023-10-31T05:36:32;1.20;;;1.10;;
21183;SDS011;18176;49.502;11.754;2023-10-31T05:40:32;0.97;;;0.97;;
21183;SDS011;18176;49.502;11.754;2023-10-31T05:44:34;1.30;;;1.00;;
21183;SDS011;18176;49.502;11.754;2023-10-31T05:48:34;2.43;;;1.30;;
21183;SDS011;18176;49.502;11.754;2023-10-31T05:52:37;2.13;;;1.17;;
21183;SDS011;18176;49.502;11.754;2023-10-31T05:56:37;1.27;;;1.10;;
21183;SDS011;18176;49.502;11.754;2023-10-31T06:00:39;6.23;;;1.50;;
21183;SDS011;18176;49.502;11.754;2023-10-31T06:04:39;2.43;;;1.30;;
21183;SDS011;18176;49.502;11.754;2023-10-31T06:08:43;3.00;;;1.27;;
21183;SDS011;18176;49.502;11.754;2023-10-31T06:12:43;3.17;;;1.00;;
21183;SDS011;18176;49.502;11.754;2023-10-31T06:16:44;3.20;;;1.40;;
21183;SDS011;18176;49.502;11.754;2023-10-31T06:20:44;2.00;;;1.07;;
21183;SDS011;18176;49.502;11.754;2023-10-31T06:24:47;1.93;;;1.10;;
21183;SDS011;18176;49.502;11.754;2023-10-31T06:28:48;2.47;;;0.90;;
21183;SDS011;18176;49.502;11.754;2023-10-31T06:33:08;1.17;;;1.07;;
21183;SDS011;18176;49.502;11.754;2023-10-31T06:37:09;2.23;;;1.10;;
21183;SDS011;18176;49.502;11.754;2023-10-31T06:41:13;1.67;;;1.17;;
21183;SDS011;18176;49.502;11.754;2023-10-31T06:45:14;1.80;;;1.20;;
21183;SDS011;18176;49.502;11.754;2023-10-31T06:49:14;2.20;;;1.63;;
21183;SDS011;18176;49.502;11.754;2023-10-31T06:53:16;1.37;;;1.20;;
21183;SDS011;18176;49.502;11.754;2023-10-31T06:57:19;4.03;;;1.37;;
21183;SDS011;18176;49.502;11.754;2023-10-31T07:01:19;1.37;;;0.90;;
21183;SDS011;18176;49.502;11.754;2023-10-31T07:05:20;1.33;;;0.80;;
21183;SDS011;18176;49.502;11.754;2023-10-31T07:09:20;0.93;;;0.80;;
21183;SDS011;18176;49.502;11.754;2023-10-31T07:13:23;0.80;;;0.80;;
21183;SDS011;18176;49.502;11.754;2023-10-31T07:17:24;3.70;;;0.80;;
21183;SDS011;18176;49.502;11.754;2023-10-31T07:21:25;2.63;;;1.00;;
21183;SDS011;18176;49.502;11.754;2023-10-31T07:25:25;6.60;;;1.20;;
21183;SDS011;18176;49.502;11.754;2023-10-31T07:29:28;1.37;;;0.93;;
21183;SDS011;18176;49.502;11.754;2023-10-31T07:33:28;2.67;;;0.93;;
21183;SDS011;18176;49.502;11.754;2023-10-31T07:37:29;5.33;;;0.80;;
21183;SDS011;18176;49.502;11.754;2023-10-31T07:41:32;2.83;;;1.00;;
21183;SDS011;18176;49.502;11.754;2023-10-31T07:45:35;2.77;;;1.20;;
21183;SDS011;18176;49.502;11.754;2023-10-31T07:49:35;2.23;;;0.90;;
21183;SDS011;18176;49.502;11.754;2023-10-31T07:53:36;1.67;;;0.90;;
21183;SDS011;18176;49.502;11.754;2023-10-31T07:57:36;2.53;;;0.93;;
21183;SDS011;18176;49.502;11.754;2023-10-31T08:01:41;1.43;;;0.70;;
21183;SDS011;18176;49.502;11.754;2023-10-31T08:05:41;1.13;;;0.90;;
21183;SDS011;18176;49.502;11.754;2023-10-31T08:09:42;1.20;;;0.60;;
21183;SDS011;18176;49.502;11.754;2023-10-31T08:13:43;2.40;;;0.70;;
21183;SDS011;18176;49.502;11.754;2023-10-31T08:17:46;1.40;;;0.90;;
21183;SDS011;18176;49.502;11.754;2023-10-31T08:21:46;1.50;;;0.90;;
21183;SDS011;18176;49.502;11.754;2023-10-31T08:25:47;0.87;;;0.80;;
21183;SDS011;18176;49.502;11.754;2023-10-31T08:29:47;0.80;;;0.80;;
21183;SDS011;18176;49.502;11.754;2023-10-31T08:33:50;1.43;;;0.80;;
21183;SDS011;18176;49.502;11.754;2023-10-31T08:37:51;1.97;;;0.67;;
21183;SDS011;18176;49.502;11.754;2023-10-31T08:41:54;2.40;;;0.83;;
21183;SDS011;18176;49.502;11.754;2023-10-31T08:45:57;3.77;;;1.20;;
21183;SDS011;18176;49.502;11.754;2023-10-31T08:50:00;2.97;;;1.03;;
21183;SDS011;18176;49.502;11.754;2023-10-31T08:54:00;2.67;;;0.90;;
21183;SDS011;18176;49.502;11.754;2023-10-31T08:58:01;1.73;;;1.00;;
21183;SDS011;18176;49.502;11.754;2023-10-31T09:02:02;2.63;;;0.90;;
21183;SDS011;18176;49.502;11.754;2023-10-31T09:06:08;1.57;;;0.80;;
21183;SDS011;18176;49.502;11.754;2023-10-31T09:10:08;2.20;;;0.73;;
21183;SDS011;18176;49.502;11.754;2023-10-31T09:14:09;3.33;;;1.33;;
21183;SDS011;18176;49.502;11.754;2023-10-31T09:18:09;3.27;;;1.10;;
21183;SDS011;18176;49.502;11.754;2023-10-31T09:22:15;1.70;;;1.00;;
21183;SDS011;18176;49.502;11.754;2023-10-31T09:26:16;2.20;;;0.97;;
21183;SDS011;18176;49.502;11.754;2023-10-31T09:30:17;1.57;;;0.70;;
21183;SDS011;18176;49.502;11.754;2023-10-31T09:34:18;1.33;;;0.80;;
21183;SDS011;18176;49.502;11.754;2023-10-31T09:38:21;1.77;;;1.00;;
21183;SDS011;18176;49.502;11.754;2023-10-31T09:42:21;0.73;;;0.53;;
21183;SDS011;18176;49.502;11.754;2023-10-31T09:46:22;1.80;;;0.90;;
21183;SDS011;18176;49.502;11.754;2023-10-31T09:50:23;2.20;;;0.80;;
21183;SDS011;18176;49.502;11.754;2023-10-31T09:54:26;3.13;;;1.00;;
21183;SDS011;18176;49.502;11.754;2023-10-31T09:58:27;1.17;;;0.80;;
21183;SDS011;18176;49.502;11.754;2023-10-31T10:02:28;1.17;;;0.60;;
21183;SDS011;18176;49.502;11.754;2023-10-31T10:06:28;1.00;;;0.70;;
21183;SDS011;18176;49.502;11.754;2023-10-31T10:10:32;4.33;;;0.60;;
21183;SDS011;18176;49.502;11.754;2023-10-31T10:14:33;0.73;;;0.50;;
21183;SDS011;18176;49.502;11.754;2023-10-31T10:18:34;2.50;;;0.80;;
21183;SDS011;18176;49.502;11.754;2023-10-31T10:22:37;1.97;;;0.80;;
21183;SDS011;18176;49.502;11.754;2023-10-31T10:26:41;1.07;;;0.70;;
21183;SDS011;18176;49.502;11.754;2023-10-31T10:30:45;1.10;;;0.80;;
21183;SDS011;18176;49.502;11.754;2023-10-31T10:34:46;1.70;;;0.70;;
21183;SDS011;18176;49.502;11.754;2023-10-31T10:38:47;0.83;;;0.73;;
21183;SDS011;18176;49.502;11.754;2023-10-31T10:42:55;1.77;;;0.70;;
21183;SDS011;18176;49.502;11.754;2023-10-31T10:47:05;2.73;;;0.80;;
21183;SDS011;18176;49.502;11.754;2023-10-31T10:51:11;2.77;;;0.70;;
21183;SDS011;18176;49.502;11.754;2023-10-31T10:55:21;1.63;;;0.90;;
21183;SDS011;18176;49.502;11.754;2023-10-31T10:59:30;1.63;;;0.67;;
21183;SDS011;18176;49.502;11.754;2023-10-31T11:03:38;1.20;;;0.70;;
21183;SDS011;18176;49.502;11.754;2023-10-31T11:07:40;1.23;;;0.60;;
21183;SDS011;18176;49.502;11.754;2023-10-31T11:11:41;0.70;;;0.70;;
21183;SDS011;18176;49.502;11.754;2023-10-31T11:15:49;1.00;;;0.77;;
21183;SDS011;18176;49.502;11.754;2023-10-31T11:19:56;1.00;;;0.60;;
21183;SDS011;18176;49.502;11.754;2023-10-31T11:24:00;1.30;;;1.20;;
21183;SDS011;18176;49.502;11.754;2023-10-31T11:28:11;1.67;;;0.80;;
21183;SDS011;18176;49.502;11.754;2023-10-31T11:32:17;2.60;;;0.80;;
21183;SDS011;18176;49.502;11.754;2023-10-31T11:36:21;0.77;;;0.77;;
21183;SDS011;18176;49.502;11.754;2023-10-31T11:40:22;1.97;;;0.80;;
21183;SDS011;18176;49.502;11.754;2023-10-31T11:44:25;1.00;;;0.90;;
21183;SDS011;18176;49.502;11.754;2023-10-31T11:52:59;1.10;;;0.93;;
21183;SDS011;18176;49.502;11.754;2023-10-31T11:57:05;1.67;;;0.90;;
21183;SDS011;18176;49.502;11.754;2023-10-31T12:01:06;1.17;;;0.70;;
21183;SDS011;18176;49.502;11.754;2023-10-31T12:05:13;2.77;;;0.80;;
21183;SDS011;18176;49.502;11.754;2023-10-31T12:09:13;0.80;;;0.80;;
21183;SDS011;18176;49.502;11.754;2023-10-31T12:13:14;2.17;;;1.43;;
21183;SDS011;18176;49.502;11.754;2023-10-31T12:17:14;0.57;;;0.57;;
21183;SDS011;18176;49.502;11.754;2023-10-31T12:21:17;2.30;;;1.40;;
21183;SDS011;18176;49.502;11.754;2023-10-31T12:25:18;2.97;;;1.00;;
21183;SDS011;18176;49.502;11.754;2023-10-31T12:29:20;2.03;;;1.10;;
21183;SDS011;18176;49.502;11.754;2023-10-31T12:33:21;4.03;;;1.17;;
21183;SDS011;18176;49.502;11.754;2023-10-31T12:37:27;1.50;;;1.40;;
21183;SDS011;18176;49.502;11.754;2023-10-31T12:41:28;1.97;;;1.30;;
21183;SDS011;18176;49.502;11.754;2023-10-31T12:45:29;6.97;;;2.40;;
21183;SDS011;18176;49.502;11.754;2023-10-31T12:49:30;8.20;;;4.17;;
21183;SDS011;18176;49.502;11.754;2023-10-31T12:53:33;3.50;;;2.07;;
21183;SDS011;18176;49.502;11.754;2023-10-31T12:57:35;1.97;;;1.70;;
21183;SDS011;18176;49.502;11.754;2023-10-31T13:01:35;3.33;;;2.17;;
21183;SDS011;18176;49.502;11.754;2023-10-31T13:05:41;2.43;;;1.20;;
21183;SDS011;18176;49.502;11.754;2023-10-31T13:09:45;0.83;;;0.73;;
21183;SDS011;18176;49.502;11.754;2023-10-31T13:13:48;1.67;;;1.10;;
21183;SDS011;18176;49.502;11.754;2023-10-31T13:17:49;3.53;;;1.10;;
21183;SDS011;18176;49.502;11.754;2023-10-31T13:21:51;5.13;;;1.10;;
21183;SDS011;18176;49.502;11.754;2023-10-31T13:25:54;3.80;;;1.10;;
21183;SDS011;18176;49.502;11.754;2023-10-31T13:29:55;2.97;;;1.10;;
21183;SDS011;18176;49.502;11.754;2023-10-31T13:33:56;4.30;;;1.43;;
21183;SDS011;18176;49.502;11.754;2023-10-31T13:37:57;1.33;;;1.00;;
21183;SDS011;18176;49.502;11.754;2023-10-31T13:42:00;1.63;;;1.10;;
21183;SDS011;18176;49.502;11.754;2023-10-31T13:46:00;2.47;;;1.53;;
21183;SDS011;18176;49.502;11.754;2023-10-31T13:50:01;2.83;;;1.53;;
21183;SDS011;18176;49.502;11.754;2023-10-31T13:54:03;2.40;;;1.00;;
21183;SDS011;18176;49.502;11.754;2023-10-31T13:58:07;1.63;;;1.20;;
21183;SDS011;18176;49.502;11.754;2023-10-31T14:02:07;5.03;;;1.60;;
21183;SDS011;18176;49.502;11.754;2023-10-31T14:06:08;5.93;;;1.60;;
21183;SDS011;18176;49.502;11.754;2023-10-31T14:10:09;1.67;;;1.40;;
21183;SDS011;18176;49.502;11.754;2023-10-31T14:14:12;4.87;;;1.60;;
21183;SDS011;18176;49.502;11.754;2023-10-31T14:18:12;1.90;;;1.00;;
21183;SDS011;18176;49.502;11.754;2023-10-31T14:22:13;3.47;;;2.10;;
21183;SDS011;18176;49.502;11.754;2023-10-31T14:26:13;4.00;;;1.80;;
21183;SDS011;18176;49.502;11.754;2023-10-31T14:30:16;5.43;;;1.60;;
21183;SDS011;18176;49.502;11.754;2023-10-31T14:34:17;2.53;;;1.90;;
21183;SDS011;18176;49.502;11.754;2023-10-31T14:38:17;3.80;;;1.70;;
21183;SDS011;18176;49.502;11.754;2023-10-31T14:42:18;4.63;;;1.80;;
21183;SDS011;18176;49.502;11.754;2023-10-31T14:46:21;4.07;;;1.80;;
21183;SDS011;18176;49.502;11.754;2023-10-31T14:50:21;3.30;;;1.80;;
21183;SDS011;18176;49.502;11.754;2023-10-31T14:54:22;5.03;;;1.90;;
21183;SDS011;18176;49.502;11.754;2023-10-31T14:58:22;2.80;;;1.60;;
21183;SDS011;18176;49.502;11.754;2023-10-31T15:02:25;4.83;;;1.93;;
21183;SDS011;18176;49.502;11.754;2023-10-31T15:06:27;5.80;;;2.00;;
21183;SDS011;18176;49.502;11.754;2023-10-31T15:10:30;3.43;;;1.60;;
21183;SDS011;18176;49.502;11.754;2023-10-31T15:14:31;6.23;;;1.80;;
21183;SDS011;18176;49.502;11.754;2023-10-31T15:18:34;3.07;;;1.70;;
21183;SDS011;18176;49.502;11.754;2023-10-31T15:22:37;2.07;;;1.47;;
21183;SDS011;18176;49.502;11.754;2023-10-31T15:26:38;2.70;;;1.40;;
21183;SDS011;18176;49.502;11.754;2023-10-31T15:30:38;4.13;;;1.60;;
21183;SDS011;18176;49.502;11.754;2023-10-31T15:34:41;5.10;;;1.90;;
21183;SDS011;18176;49.502;11.754;2023-10-31T15:38:42;5.00;;;1.70;;
21183;SDS011;18176;49.502;11.754;2023-10-31T15:42:42;3.17;;;2.13;;
21183;SDS011;18176;49.502;11.754;2023-10-31T15:46:43;6.40;;;1.87;;
21183;SDS011;18176;49.502;11.754;2023-10-31T15:50:46;4.93;;;1.50;;
21183;SDS011;18176;49.502;11.754;2023-10-31T15:54:47;4.97;;;1.80;;
21183;SDS011;18176;49.502;11.754;2023-10-31T15:58:47;3.63;;;1.60;;
21183;SDS011;18176;49.502;11.754;2023-10-31T16:02:48;7.57;;;2.83;;
21183;SDS011;18176;49.502;11.754;2023-10-31T16:06:52;7.70;;;2.73;;
21183;SDS011;18176;49.502;11.754;2023-10-31T16:10:52;11.17;;;4.23;;
21183;SDS011;18176;49.502;11.754;2023-10-31T16:14:53;5.73;;;2.80;;
21183;SDS011;18176;49.502;11.754;2023-10-31T16:18:54;5.20;;;2.50;;
21183;SDS011;18176;49.502;11.754;2023-10-31T16:22:57;16.07;;;4.40;;
21183;SDS011;18176;49.502;11.754;2023-10-31T16:26:58;7.50;;;3.40;;
21183;SDS011;18176;49.502;11.754;2023-10-31T16:30:58;7.23;;;3.63;;
21183;SDS011;18176;49.502;11.754;2023-10-31T16:35:01;10.77;;;3.63;;
21183;SDS011;18176;49.502;11.754;2023-10-31T16:39:04;8.70;;;3.07;;
21183;SDS011;18176;49.502;11.754;2023-10-31T16:43:08;3.93;;;2.20;;
21183;SDS011;18176;49.502;11.754;2023-10-31T16:47:08;6.40;;;2.60;;
21183;SDS011;18176;49.502;11.754;2023-10-31T16:51:14;8.33;;;2.50;;
21183;SDS011;18176;49.502;11.754;2023-10-31T16:55:18;8.83;;;3.50;;
21183;SDS011;18176;49.502;11.754;2023-10-31T16:59:19;6.90;;;4.63;;
21183;SDS011;18176;49.502;11.754;2023-10-31T17:03:19;11.53;;;5.13;;
21183;SDS011;18176;49.502;11.754;2023-10-31T17:07:20;6.73;;;2.83;;
21183;SDS011;18176;49.502;11.754;2023-10-31T17:11:23;9.50;;;2.93;;
21183;SDS011;18176;49.502;11.754;2023-10-31T17:15:24;6.97;;;2.50;;
21183;SDS011;18176;49.502;11.754;2023-10-31T17:19:25;5.40;;;1.93;;
21183;SDS011;18176;49.502;11.754;2023-10-31T17:23:25;6.20;;;2.60;;
21183;SDS011;18176;49.502;11.754;2023-10-31T17:27:29;5.07;;;1.90;;
21183;SDS011;18176;49.502;11.754;2023-10-31T17:31:30;6.90;;;2.13;;
21183;SDS011;18176;49.502;11.754;2023-10-31T17:35:34;8.00;;;2.40;;
21183;SDS011;18176;49.502;11.754;2023-10-31T17:39:35;6.00;;;2.27;;
21183;SDS011;18176;49.502;11.754;2023-10-31T17:43:38;6.23;;;2.30;;
21183;SDS011;18176;49.502;11.754;2023-10-31T17:47:39;6.87;;;2.70;;
21183;SDS011;18176;49.502;11.754;2023-10-31T17:51:39;5.67;;;3.00;;
21183;SDS011;18176;49.502;11.754;2023-10-31T17:55:41;4.23;;;2.00;;
21183;SDS011;18176;49.502;11.754;2023-10-31T17:59:45;4.90;;;2.53;;
21183;SDS011;18176;49.502;11.754;2023-10-31T18:03:45;15.23;;;7.50;;
21183;SDS011;18176;49.502;11.754;2023-10-31T18:07:47;10.20;;;4.50;;
21183;SDS011;18176;49.502;11.754;2023-10-31T18:11:48;10.50;;;4.40;;
21183;SDS011;18176;49.502;11.754;2023-10-31T18:15:51;15.40;;;5.47;;
21183;SDS011;18176;49.502;11.754;2023-10-31T18:19:52;12.83;;;5.23;;
21183;SDS011;18176;49.502;11.754;2023-10-31T18:23:52;24.53;;;10.83;;
21183;SDS011;18176;49.502;11.754;2023-10-31T18:27:52;26.17;;;11.87;;
21183;SDS011;18176;49.502;11.754;2023-10-31T18:31:55;49.43;;;22.10;;
21183;SDS011;18176;49.502;11.754;2023-10-31T18:35:56;11.47;;;4.90;;
21183;SDS011;18176;49.502;11.754;2023-10-31T18:39:57;9.50;;;3.53;;
21183;SDS011;18176;49.502;11.754;2023-10-31T18:43:57;8.37;;;4.30;;
21183;SDS011;18176;49.502;11.754;2023-10-31T18:48:20;7.67;;;3.73;;
21183;SDS011;18176;49.502;11.754;2023-10-31T18:52:22;8.60;;;4.10;;
21183;SDS011;18176;49.502;11.754;2023-10-31T18:56:23;8.10;;;3.30;;
21183;SDS011;18176;49.502;11.754;2023-10-31T19:00:23;11.20;;;4.87;;
21183;SDS011;18176;49.502;11.754;2023-10-31T19:04:26;11.67;;;5.50;;
21183;SDS011;18176;49.502;11.754;2023-10-31T19:08:27;8.60;;;3.73;;
21183;SDS011;18176;49.502;11.754;2023-10-31T19:12:29;7.97;;;3.30;;
21183;SDS011;18176;49.502;11.754;2023-10-31T19:16:32;5.80;;;2.47;;
21183;SDS011;18176;49.502;11.754;2023-10-31T19:20:36;6.50;;;2.90;;
21183;SDS011;18176;49.502;11.754;2023-10-31T19:24:37;4.47;;;2.30;;
21183;SDS011;18176;49.502;11.754;2023-10-31T19:28:37;6.00;;;3.00;;
21183;SDS011;18176;49.502;11.754;2023-10-31T19:32:38;9.27;;;3.53;;
21183;SDS011;18176;49.502;11.754;2023-10-31T19:36:44;5.53;;;3.87;;
21183;SDS011;18176;49.502;11.754;2023-10-31T19:40:46;6.67;;;3.20;;
21183;SDS011;18176;49.502;11.754;2023-10-31T19:44:47;6.13;;;3.00;;
21183;SDS011;18176;49.502;11.754;2023-10-31T19:48:48;8.97;;;3.57;;
21183;SDS011;18176;49.502;11.754;2023-10-31T19:52:54;4.17;;;2.63;;
21183;SDS011;18176;49.502;11.754;2023-10-31T19:56:55;6.17;;;3.00;;
21183;SDS011;18176;49.502;11.754;2023-10-31T20:00:56;6.37;;;2.90;;
21183;SDS011;18176;49.502;11.754;2023-10-31T20:04:59;6.20;;;3.00;;
21183;SDS011;18176;49.502;11.754;2023-10-31T20:09:03;7.37;;;2.60;;
21183;SDS011;18176;49.502;11.754;2023-10-31T20:13:06;6.37;;;3.03;;
21183;SDS011;18176;49.502;11.754;2023-10-31T20:17:08;5.23;;;2.57;;
21183;SDS011;18176;49.502;11.754;2023-10-31T20:21:08;6.60;;;4.30;;
21183;SDS011;18176;49.502;11.754;2023-10-31T20:25:11;7.57;;;2.73;;
21183;SDS011;18176;49.502;11.754;2023-10-31T20:29:13;3.70;;;2.13;;
21183;SDS011;18176;49.502;11.754;2023-10-31T20:33:13;6.00;;;2.70;;
21183;SDS011;18176;49.502;11.754;2023-10-31T20:37:14;6.43;;;2.77;;
21183;SDS011;18176;49.502;11.754;2023-10-31T20:41:17;4.87;;;2.30;;
21183;SDS011;18176;49.502;11.754;2023-10-31T20:45:18;4.23;;;2.33;;
21183;SDS011;18176;49.502;11.754;2023-10-31T20:49:18;4.07;;;2.33;;
21183;SDS011;18176;49.502;11.754;2023-10-31T20:53:19;5.07;;;2.57;;
21183;SDS011;18176;49.502;11.754;2023-10-31T20:57:25;6.00;;;2.13;;
21183;SDS011;18176;49.502;11.754;2023-10-31T21:01:26;6.63;;;3.17;;
21183;SDS011;18176;49.502;11.754;2023-10-31T21:05:28;6.20;;;2.90;;
21183;SDS011;18176;49.502;11.754;2023-10-31T21:09:28;6.87;;;4.57;;
21183;SDS011;18176;49.502;11.754;2023-10-31T21:13:33;4.80;;;2.67;;
21183;SDS011;18176;49.502;11.754;2023-10-31T21:17:33;5.60;;;2.70;;
21183;SDS011;18176;49.502;11.754;2023-10-31T21:21:35;4.87;;;3.20;;
21183;SDS011;18176;49.502;11.754;2023-10-31T21:25:36;7.40;;;3.07;;
21183;SDS011;18176;49.502;11.754;2023-10-31T21:29:41;6.17;;;2.70;;
21183;SDS011;18176;49.502;11.754;2023-10-31T21:33:41;5.40;;;3.17;;
21183;SDS011;18176;49.502;11.754;2023-10-31T21:37:42;5.20;;;3.37;;
21183;SDS011;18176;49.502;11.754;2023-10-31T21:41:46;3.47;;;2.40;;
21183;SDS011;18176;49.502;11.754;2023-10-31T21:45:50;5.87;;;2.63;;
21183;SDS011;18176;49.502;11.754;2023-10-31T21:49:51;4.60;;;2.90;;
21183;SDS011;18176;49.502;11.754;2023-10-31T21:53:51;5.87;;;3.33;;
21183;SDS011;18176;49.502;11.754;2023-10-31T21:57:51;4.73;;;3.00;;
21183;SDS011;18176;49.502;11.754;2023-10-31T22:01:54;3.97;;;2.70;;
21183;SDS011;18176;49.502;11.754;2023-10-31T22:05:55;4.00;;;2.37;;
21183;SDS011;18176;49.502;11.754;2023-10-31T22:09:56;4.80;;;2.40;;
21183;SDS011;18176;49.502;11.754;2023-10-31T22:13:56;5.93;;;2.57;;
21183;SDS011;18176;49.502;11.754;2023-10-31T22:17:59;2.47;;;2.10;;
21183;SDS011;18176;49.502;11.754;2023-10-31T22:21:59;2.90;;;2.00;;
21183;SDS011;18176;49.502;11.754;2023-10-31T22:26:00;3.87;;;2.10;;
21183;SDS011;18176;49.502;11.754;2023-10-31T22:30:01;3.90;;;2.20;;
21183;SDS011;18176;49.502;11.754;2023-10-31T22:34:06;3.10;;;2.03;;
21183;SDS011;18176;49.502;11.754;2023-10-31T22:38:07;6.90;;;2.53;;
21183;SDS011;18176;49.502;11.754;2023-10-31T22:42:07;6.43;;;3.07;;
21183;SDS011;18176;49.502;11.754;2023-10-31T22:46:08;3.87;;;2.67;;
21183;SDS011;18176;49.502;11.754;2023-10-31T22:50:11;5.73;;;2.90;;
21183;SDS011;18176;49.502;11.754;2023-10-31T22:54:12;4.73;;;2.80;;
21183;SDS011;18176;49.502;11.754;2023-10-31T22:58:15;3.73;;;2.60;;
21183;SDS011;18176;49.502;11.754;2023-10-31T23:02:15;3.93;;;2.67;;
21183;SDS011;18176;49.502;11.754;2023-10-31T23:06:20;4.67;;;2.50;;
21183;SDS011;18176;49.502;11.754;2023-10-31T23:10:24;3.63;;;2.30;;
21183;SDS011;18176;49.502;11.754;2023-10-31T23:14:25;4.53;;;2.93;;
21183;SDS011;18176;49.502;11.754;2023-10-31T23:18:26;4.37;;;2.47;;
21183;SDS011;18176;49.502;11.754;2023-10-31T23:22:29;4.00;;;2.03;;
21183;SDS011;18176;49.502;11.754;2023-10-31T23:26:30;4.57;;;2.00;;
21183;SDS011;18176;49.502;11.754;2023-10-31T23:30:30;2.67;;;2.00;;
21183;SDS011;18176;49.502;11.754;2023-10-31T23:34:33;2.93;;;2.00;;
21183;SDS011;18176;49.502;11.754;2023-10-31T23:38:37;4.30;;;2.50;;
21183;SDS011;18176;49.502;11.754;2023-10-31T23:42:37;2.30;;;2.10;;
21183;SDS011;18176;49.502;11.754;2023-10-31T23:46:38;3.30;;;1.97;;
21183;SDS011;18176;49.502;11.754;2023-10-31T23:50:38;2.67;;;1.73;;
21183;SDS011;18176;49.502;11.754;2023-10-31T23:54:42;2.27;;;1.80;;
21183;SDS011;18176;49.502;11.754;2023-10-31T23:58:43;4.87;;;1.90;;
